MMTO/TLC METAR and TAF weather

Enter ICAO airport designator
Station Type Date Time Source
MMTO METAR 2018/12/13 21:49 UTC NOAA

MMTO 132149Z 30012KT 7SM FEW015 BKN080 BKN200 16/00 A3027 RMK 8/131


Station Type Date Time Source
MMTO Decoded METAR 2018/12/13 21:49 UTC NOAA

Toluca / Jose Maria , Mexico (MMTO) 19-21N 099-34W
Dec 13, 2018 - 04:49 PM EST / 2018.12.13 2149 UTC
Wind: from the WNW (300 degrees) at 14 MPH (12 KT):0
Visibility: 7 mile(s):0
Sky conditions: mostly cloudy
Temperature: 60 F (16 C)
Dew Point: 32 F (0 C)
Relative Humidity: 33%
Pressure (altimeter): 30.27 in. Hg (1025 hPa)
ob: MMTO 132149Z 30012KT 7SM FEW015 BKN080 BKN200 16/00 A3027 RMK 8/131
cycle: 22

Station Type Date Time Source
MMTO TAF 2018/12/13 18:27 UTC NOAA

TAF MMTO 131619Z 1318/1424 20006KT 6SM HZ SCT015 SCT070 BKN200 TX20/1420Z TN01/1412Z
TEMPO 1321/1401 24015KT SCT015CB BKN070 BKN200
FM140400 35005KT 5SM HZ SCT200
FM141000 20006KT 5SM HZ SCT015 BKN200
FM141600 25008KT 6SM HZ SCT015 BKN200


Example: see airport list